Portada
METAR-TAF:

METAR-TAF

Aeroports :

Gwened, França

latitud: 47-43-19N, longitud: 2-43-41W, altitud: 130 m

Observació

L'informe es va fer fa 37 minuts, a les 17:30 UTC
Vent 17 kt del Nord/Nord-Est
Temperatura 7°C
Humitat 57%
Pressió 1030 hPa
Visibilitat 10 km o més
Escasses núvols a una alçada de 4500 ft
Cel cobert a una alçada de 6200 ft

METAR: LFRV 291730Z AUTO 02017KT 9999 FEW045 OVC062 07/M01 Q1030

Hora: 20:07 (18:07 UTC)


TAF: manca

Observacions i pronòstics meteorològics de més de 4000 aeroports (METAR i TAF).

Les estacions disponibles són els punts grocs i vermells al mapa.

Posi el ratolí al punt desitjat per veure el nom de l'estació.

Feu clic per veure les observacions i els pronòstics meteorològics.

Per canviar el mapa: feu clic els botons verds amb una creu de color negre per apropar; al botó verd amb un guió per allunyar la imatge; o en les fletxes verdes per a mapes adjacents.


METAR-TAF: